createdAt,value
2023-04-21T00:01:34.907Z,8.17
2023-04-21T00:04:02.843Z,8.15
2023-04-21T00:06:31.443Z,8.12
2023-04-21T00:08:59.274Z,8.10
2023-04-21T00:11:27.019Z,8.06
2023-04-21T00:13:55.796Z,8.01
2023-04-21T00:16:23.614Z,7.97
2023-04-21T00:18:51.282Z,7.92
2023-04-21T00:21:18.905Z,7.87
2023-04-21T00:23:47.491Z,7.81
2023-04-21T00:26:15.220Z,7.75
2023-04-21T00:28:42.914Z,7.71
2023-04-21T00:31:11.068Z,7.69
2023-04-21T00:33:39.257Z,7.66
2023-04-21T00:36:07.195Z,7.63
2023-04-21T00:38:34.827Z,7.61
2023-04-21T00:41:02.744Z,7.59
2023-04-21T00:43:30.498Z,7.59
2023-04-21T00:45:58.182Z,7.59
2023-04-21T00:48:25.856Z,7.56
2023-04-21T00:50:53.757Z,7.54
2023-04-21T00:53:22.471Z,7.51
2023-04-21T00:55:50.940Z,7.51
2023-04-21T00:58:18.700Z,7.50
2023-04-21T01:00:46.429Z,7.49
2023-04-21T01:03:14.437Z,7.47
2023-04-21T01:05:42.614Z,7.43
2023-04-21T01:08:10.825Z,7.39
2023-04-21T01:10:38.560Z,7.38
2023-04-21T01:13:06.313Z,7.36
2023-04-21T01:15:33.992Z,7.34
2023-04-21T01:18:02.162Z,7.30
2023-04-21T01:20:31.052Z,7.29
2023-04-21T01:22:59.118Z,7.26
2023-04-21T01:25:28.628Z,7.24
2023-04-21T01:27:56.380Z,7.21
2023-04-21T01:30:24.157Z,7.19
2023-04-21T01:32:51.953Z,7.15
2023-04-21T01:35:20.100Z,7.13
2023-04-21T01:37:47.857Z,7.10
2023-04-21T01:40:15.740Z,7.07
2023-04-21T01:42:43.682Z,7.04
2023-04-21T01:45:12.383Z,7.01
2023-04-21T01:47:40.224Z,6.98
2023-04-21T01:50:09.859Z,6.95
2023-04-21T01:52:38.415Z,6.94
2023-04-21T01:55:06.786Z,6.91
2023-04-21T01:57:34.537Z,6.89
2023-04-21T02:00:04.048Z,6.87
2023-04-21T02:02:31.927Z,6.85
2023-04-21T02:04:59.898Z,6.83
2023-04-21T02:07:27.678Z,6.83
2023-04-21T02:09:55.417Z,6.83
2023-04-21T02:12:23.192Z,6.83
2023-04-21T02:14:51.152Z,6.83
2023-04-21T02:17:18.891Z,6.83
2023-04-21T02:19:47.918Z,6.83
2023-04-21T02:22:15.772Z,6.82
2023-04-21T02:24:43.529Z,6.81
2023-04-21T02:27:11.200Z,6.79
2023-04-21T02:29:38.844Z,6.76
2023-04-21T02:34:38.496Z,6.73
2023-04-21T02:37:06.652Z,6.73
2023-04-21T02:39:34.412Z,6.71
2023-04-21T02:42:02.285Z,6.69
2023-04-21T02:44:29.956Z,6.66
2023-04-21T02:46:57.883Z,6.63
2023-04-21T02:49:25.711Z,6.61
2023-04-21T02:51:55.177Z,6.59
2023-04-21T02:54:22.933Z,6.59
2023-04-21T02:56:50.703Z,6.57
2023-04-21T02:59:18.798Z,6.55
2023-04-21T03:01:49.312Z,6.54
2023-04-21T03:04:17.912Z,6.53
2023-04-21T03:06:46.056Z,6.52
2023-04-21T03:09:13.812Z,6.51
2023-04-21T03:11:41.525Z,6.51
2023-04-21T03:14:09.335Z,6.52
2023-04-21T03:16:37.051Z,6.55
2023-04-21T03:19:04.761Z,6.57
2023-04-21T03:21:32.526Z,6.58
2023-04-21T03:24:00.286Z,6.57
2023-04-21T03:26:28.067Z,6.55
2023-04-21T03:28:55.741Z,6.53
2023-04-21T03:31:23.529Z,6.48
2023-04-21T03:33:51.325Z,6.45
2023-04-21T03:36:18.997Z,6.41
2023-04-21T03:38:46.692Z,6.34
2023-04-21T03:41:14.435Z,6.28
2023-04-21T03:43:42.199Z,6.23
2023-04-21T03:46:20.875Z,6.16
2023-04-21T03:48:48.947Z,6.07
2023-04-21T03:51:16.856Z,5.99
2023-04-21T03:53:44.766Z,5.92
2023-04-21T03:56:12.506Z,5.87
2023-04-21T03:58:40.249Z,5.81
2023-04-21T04:01:08.078Z,5.76
2023-04-21T04:03:36.572Z,5.71
2023-04-21T04:06:04.975Z,5.66
2023-04-21T04:08:32.730Z,5.62
2023-04-21T04:11:00.497Z,5.60
2023-04-21T04:13:29.591Z,5.59
2023-04-21T04:15:58.127Z,5.61
2023-04-21T04:18:25.983Z,5.64
2023-04-21T04:20:53.677Z,5.69
2023-04-21T04:23:21.985Z,5.74
2023-04-21T04:25:49.736Z,5.80
2023-04-21T04:28:17.478Z,5.88
2023-04-21T04:30:45.618Z,5.98
2023-04-21T04:33:13.305Z,6.12
2023-04-21T04:35:41.092Z,6.30
2023-04-21T04:38:08.854Z,6.51
2023-04-21T04:40:36.560Z,6.70
2023-04-21T04:43:04.256Z,7.02
2023-04-21T04:45:33.186Z,7.45
2023-04-21T04:48:01.296Z,7.91
2023-04-21T04:50:29.037Z,8.34
2023-04-21T04:52:57.648Z,8.79
2023-04-21T04:55:26.110Z,9.25
2023-04-21T04:57:53.862Z,9.71
2023-04-21T05:00:22.082Z,10.07
2023-04-21T05:02:49.912Z,10.36
2023-04-21T05:05:17.763Z,10.59
2023-04-21T05:07:46.017Z,10.56
2023-04-21T05:10:13.879Z,10.38
2023-04-21T05:12:41.638Z,10.18
2023-04-21T05:15:09.816Z,9.98
2023-04-21T05:17:37.826Z,9.81
2023-04-21T05:20:07.066Z,9.67
2023-04-21T05:22:38.856Z,9.57
2023-04-21T05:25:07.521Z,9.47
2023-04-21T05:27:35.438Z,9.39
2023-04-21T05:30:03.400Z,9.33
2023-04-21T05:32:31.204Z,9.30
2023-04-21T05:35:00.323Z,9.30
2023-04-21T05:37:28.100Z,9.32
2023-04-21T05:39:55.777Z,9.34
2023-04-21T05:42:23.611Z,9.34
2023-04-21T05:44:51.427Z,9.36
2023-04-21T05:47:19.230Z,9.41
2023-04-21T05:49:50.497Z,9.47
2023-04-21T05:52:18.486Z,9.55
2023-04-21T05:54:46.188Z,9.64
2023-04-21T05:57:13.976Z,9.73
2023-04-21T05:59:41.711Z,9.85
2023-04-21T06:02:09.805Z,9.96
2023-04-21T06:04:37.790Z,10.08
2023-04-21T06:07:07.376Z,10.20
2023-04-21T06:09:36.362Z,10.30
2023-04-21T06:12:04.439Z,10.41
2023-04-21T06:14:32.664Z,10.52
2023-04-21T06:17:00.689Z,10.64
2023-04-21T06:19:28.455Z,10.76
2023-04-21T06:21:57.324Z,10.87
2023-04-21T06:24:25.908Z,10.97
2023-04-21T06:26:53.781Z,11.08
2023-04-21T06:29:21.538Z,11.19
2023-04-21T06:31:49.332Z,11.31
2023-04-21T06:34:17.385Z,11.42
2023-04-21T06:36:45.242Z,11.51
2023-04-21T06:39:13.110Z,11.59
2023-04-21T06:41:40.873Z,11.67
2023-04-21T06:44:08.610Z,11.75
2023-04-21T06:46:36.412Z,11.85
2023-04-21T06:49:04.382Z,11.95
2023-04-21T06:51:32.319Z,12.05
2023-04-21T06:54:01.136Z,12.15
2023-04-21T06:56:29.492Z,12.25
2023-04-21T06:58:57.227Z,12.35
2023-04-21T07:01:24.937Z,12.44
2023-04-21T07:03:53.234Z,12.52
2023-04-21T07:06:21.061Z,12.59
2023-04-21T07:08:48.807Z,12.68
2023-04-21T07:11:16.485Z,12.76
2023-04-21T07:13:44.360Z,12.86
2023-04-21T07:16:12.149Z,12.94
2023-04-21T07:18:40.728Z,13.03
2023-04-21T07:21:08.566Z,13.13
2023-04-21T07:23:36.260Z,13.24
2023-04-21T07:26:03.954Z,13.33
2023-04-21T07:28:31.798Z,13.41
2023-04-21T07:31:01.511Z,13.50
2023-04-21T07:33:30.892Z,13.62
2023-04-21T07:35:58.659Z,13.73
2023-04-21T07:38:26.904Z,13.83
2023-04-21T07:40:54.974Z,13.94
2023-04-21T07:43:22.735Z,14.06
2023-04-21T07:45:52.535Z,14.19
2023-04-21T07:48:20.430Z,14.33
2023-04-21T07:50:48.273Z,14.47
2023-04-21T07:53:16.092Z,14.59
2023-04-21T07:55:43.842Z,14.68
2023-04-21T07:58:11.573Z,14.76
2023-04-21T08:00:39.478Z,14.84
2023-04-21T08:03:07.367Z,14.91
2023-04-21T08:05:38.808Z,15.02
2023-04-21T08:08:08.868Z,15.16
2023-04-21T08:10:36.848Z,15.27
2023-04-21T08:13:06.654Z,15.37
2023-04-21T08:15:34.918Z,15.46
2023-04-21T08:18:02.949Z,15.56
2023-04-21T08:20:30.673Z,15.67
2023-04-21T08:22:58.454Z,15.77
2023-04-21T08:25:26.391Z,15.86
2023-04-21T08:27:54.150Z,15.94
2023-04-21T08:30:22.029Z,16.02
2023-04-21T08:32:49.801Z,16.11
2023-04-21T08:35:17.608Z,16.20
2023-04-21T08:37:45.869Z,16.27
2023-04-21T08:40:13.734Z,16.35
2023-04-21T08:42:42.467Z,16.43
2023-04-21T08:45:11.174Z,16.53
2023-04-21T08:47:41.779Z,16.61
2023-04-21T08:50:14.377Z,16.66
2023-04-21T08:52:42.513Z,16.70
2023-04-21T08:55:11.650Z,16.74
2023-04-21T08:57:39.285Z,16.79
2023-04-21T09:00:08.518Z,16.85
2023-04-21T09:03:00.631Z,16.89
2023-04-21T09:05:34.396Z,16.95
2023-04-21T09:08:12.434Z,17.01
2023-04-21T09:10:51.211Z,17.06
2023-04-21T09:13:20.951Z,17.09
2023-04-21T09:15:51.377Z,17.10
2023-04-21T09:18:22.343Z,17.12
2023-04-21T09:20:53.388Z,17.14
2023-04-21T09:23:21.350Z,17.19
2023-04-21T09:25:48.977Z,17.23
2023-04-21T09:28:16.654Z,17.26
2023-04-21T09:30:44.432Z,17.26
2023-04-21T09:33:27.870Z,17.24
2023-04-21T09:36:02.484Z,17.23
2023-04-21T09:38:30.468Z,17.26
2023-04-21T09:40:59.256Z,17.31
2023-04-21T09:43:27.036Z,17.36
2023-04-21T09:45:56.065Z,17.42
2023-04-21T09:48:25.999Z,17.48
2023-04-21T09:53:28.609Z,17.57
2023-04-21T09:55:58.705Z,17.62
2023-04-21T09:58:31.779Z,17.68
2023-04-21T10:00:59.868Z,17.73
2023-04-21T10:03:29.903Z,17.78
2023-04-21T10:05:58.008Z,17.82
2023-04-21T10:08:26.248Z,17.87
2023-04-21T10:10:54.588Z,17.92
2023-04-21T10:13:22.611Z,17.95
2023-04-21T10:16:01.807Z,17.97
2023-04-21T10:18:29.810Z,18.01
2023-04-21T10:21:08.738Z,18.05
2023-04-21T10:23:38.034Z,18.04
2023-04-21T10:26:19.077Z,17.98
2023-04-21T10:28:54.804Z,17.93
2023-04-21T10:31:27.276Z,18.00
2023-04-21T10:34:13.451Z,18.07
2023-04-21T10:36:44.253Z,18.16
2023-04-21T10:39:24.911Z,18.22
2023-04-21T10:41:56.165Z,18.27
2023-04-21T10:44:24.759Z,18.32
2023-04-21T10:46:53.826Z,18.43
2023-04-21T10:49:21.718Z,18.51
2023-04-21T10:52:05.439Z,18.55
2023-04-21T10:54:46.617Z,18.59
2023-04-21T10:57:20.187Z,18.61
2023-04-21T10:59:49.754Z,18.60
2023-04-21T11:02:19.278Z,18.55
2023-04-21T11:04:51.783Z,18.56
2023-04-21T11:07:24.306Z,18.54
2023-04-21T11:10:02.280Z,18.54
2023-04-21T11:12:36.901Z,18.54
2023-04-21T11:15:07.728Z,18.58
2023-04-21T11:17:36.241Z,18.67
2023-04-21T11:20:04.794Z,18.78
2023-04-21T11:22:33.752Z,18.84
2023-04-21T11:25:01.772Z,18.90
2023-04-21T11:27:30.858Z,18.97
2023-04-21T11:29:58.757Z,19.06
2023-04-21T11:32:26.786Z,19.19
2023-04-21T11:34:54.652Z,19.24
2023-04-21T11:37:26.202Z,19.25
2023-04-21T11:40:01.033Z,19.27
2023-04-21T11:42:29.219Z,19.31
2023-04-21T11:44:57.751Z,19.33
2023-04-21T11:47:28.843Z,19.29
2023-04-21T11:49:59.368Z,19.27
2023-04-21T11:52:29.478Z,19.26
2023-04-21T11:55:01.237Z,19.27
2023-04-21T11:57:31.099Z,19.30
2023-04-21T12:00:00.639Z,19.33
2023-04-21T12:02:30.507Z,19.34
2023-04-21T12:05:01.330Z,19.35
2023-04-21T12:07:31.417Z,19.35
2023-04-21T12:10:00.817Z,19.35
2023-04-21T12:12:28.862Z,19.33
2023-04-21T12:14:56.647Z,19.33
2023-04-21T12:17:24.471Z,19.34
2023-04-21T12:19:52.199Z,19.35
2023-04-21T12:22:20.179Z,19.36
2023-04-21T12:24:47.901Z,19.39
2023-04-21T12:27:15.771Z,19.44
2023-04-21T12:29:43.567Z,19.49
2023-04-21T12:32:11.394Z,19.57
2023-04-21T12:34:39.412Z,19.58
2023-04-21T12:37:07.658Z,19.60
2023-04-21T12:39:35.821Z,19.66
2023-04-21T12:42:03.652Z,19.71
2023-04-21T12:44:31.421Z,19.74
2023-04-21T12:46:59.316Z,19.72
2023-04-21T12:49:27.121Z,19.73
2023-04-21T12:51:54.840Z,19.69
2023-04-21T12:54:22.512Z,19.66
2023-04-21T12:56:50.364Z,19.66
2023-04-21T12:59:18.120Z,19.68
2023-04-21T13:01:45.975Z,19.69
2023-04-21T13:04:14.039Z,19.69
2023-04-21T13:06:42.195Z,19.69
2023-04-21T13:09:09.969Z,19.71
2023-04-21T13:11:37.867Z,19.75
2023-04-21T13:14:05.559Z,19.78
2023-04-21T13:16:33.419Z,19.77
2023-04-21T13:22:08.801Z,19.83
2023-04-21T13:24:36.542Z,19.85
2023-04-21T13:27:04.475Z,19.87
2023-04-21T13:29:34.576Z,19.89
2023-04-21T13:32:04.260Z,19.91
2023-04-21T13:34:33.815Z,19.92
2023-04-21T13:37:01.938Z,19.94
2023-04-21T13:39:30.943Z,19.96
2023-04-21T13:41:58.835Z,19.98
2023-04-21T13:44:27.382Z,19.99
2023-04-21T13:46:56.424Z,20.00
2023-04-21T13:49:24.145Z,20.00
2023-04-21T13:51:51.925Z,20.03
2023-04-21T13:54:20.287Z,20.07
2023-04-21T13:56:47.971Z,20.09
2023-04-21T13:59:16.763Z,20.11
2023-04-21T14:01:44.418Z,20.14
2023-04-21T14:04:12.235Z,20.15
2023-04-21T14:06:40.361Z,20.17
2023-04-21T14:09:09.635Z,20.18
2023-04-21T14:11:37.360Z,20.18
2023-04-21T14:14:09.652Z,20.16
2023-04-21T14:16:39.051Z,20.14
2023-04-21T14:19:07.021Z,20.14
2023-04-21T14:21:34.937Z,20.16
2023-04-21T14:24:02.695Z,20.19
2023-04-21T14:26:30.469Z,20.21
2023-04-21T14:29:00.083Z,20.24
2023-04-21T14:31:30.943Z,20.25
2023-04-21T14:33:58.864Z,20.26
2023-04-21T14:36:28.150Z,20.26
2023-04-21T14:38:56.226Z,20.27
2023-04-21T14:41:23.918Z,20.27
2023-04-21T14:43:53.961Z,20.29
2023-04-21T14:46:22.156Z,20.28
2023-04-21T14:48:49.953Z,20.27
2023-04-21T14:51:18.626Z,20.26
2023-04-21T14:53:47.033Z,20.26
2023-04-21T14:56:16.005Z,20.28
2023-04-21T14:58:44.090Z,20.25
2023-04-21T15:01:12.725Z,20.24
2023-04-21T15:03:40.798Z,20.25
2023-04-21T15:06:09.075Z,20.21
2023-04-21T15:08:36.869Z,20.20
2023-04-21T15:11:05.392Z,20.19
2023-04-21T15:13:33.596Z,20.19
2023-04-21T15:16:01.795Z,20.21
2023-04-21T15:18:29.695Z,20.22
2023-04-21T15:20:57.555Z,20.17
2023-04-21T15:23:25.283Z,20.11
2023-04-21T15:25:52.921Z,20.08
2023-04-21T15:28:20.583Z,20.12
2023-04-21T15:30:48.258Z,20.17
2023-04-21T15:33:17.567Z,20.20
2023-04-21T15:35:46.459Z,20.20
2023-04-21T15:38:14.427Z,20.17
2023-04-21T15:40:59.106Z,20.11
2023-04-21T15:43:29.368Z,20.08
2023-04-21T15:45:57.164Z,20.10
2023-04-21T15:48:25.073Z,20.06
2023-04-21T15:50:53.204Z,20.05
2023-04-21T15:53:21.143Z,20.07
2023-04-21T15:55:48.831Z,20.07
2023-04-21T15:58:17.259Z,19.97
2023-04-21T16:00:46.121Z,19.89
2023-04-21T16:03:14.089Z,19.84
2023-04-21T16:05:42.670Z,19.80
2023-04-21T16:08:10.712Z,19.77
2023-04-21T16:10:38.437Z,19.73
2023-04-21T16:13:06.603Z,19.72
2023-04-21T16:15:34.539Z,19.77
2023-04-21T16:18:06.322Z,19.82
2023-04-21T16:20:35.401Z,19.86
2023-04-21T16:23:04.840Z,19.90
2023-04-21T16:25:33.069Z,19.91
2023-04-21T16:28:01.088Z,19.93
2023-04-21T16:30:29.233Z,19.94
2023-04-21T16:32:56.979Z,19.91
2023-04-21T16:35:25.173Z,19.85
2023-04-21T16:37:52.970Z,19.81
2023-04-21T16:40:22.405Z,19.85
2023-04-21T16:42:50.295Z,19.92
2023-04-21T16:45:18.451Z,19.94
2023-04-21T16:47:46.417Z,19.92
2023-04-21T16:50:14.460Z,19.87
2023-04-21T16:52:42.317Z,19.76
2023-04-21T16:55:10.514Z,19.61
2023-04-21T16:57:38.612Z,19.46
2023-04-21T17:00:08.082Z,19.30
2023-04-21T17:02:36.145Z,19.06
2023-04-21T17:05:05.223Z,18.87
2023-04-21T17:07:34.386Z,18.65
2023-04-21T17:10:02.305Z,18.42
2023-04-21T17:12:30.126Z,18.22
2023-04-21T17:14:57.986Z,18.05
2023-04-21T17:17:26.054Z,17.87
2023-04-21T17:19:54.624Z,17.69
2023-04-21T17:22:22.469Z,17.53
2023-04-21T17:24:53.687Z,17.37
2023-04-21T17:27:22.110Z,17.21
2023-04-21T17:29:49.975Z,17.06
2023-04-21T17:32:18.062Z,16.91
2023-04-21T17:34:46.000Z,16.76
2023-04-21T17:37:14.154Z,16.60
2023-04-21T17:39:41.911Z,16.46
2023-04-21T17:42:09.565Z,16.30
2023-04-21T17:44:37.906Z,16.18
2023-04-21T17:47:08.466Z,16.03
2023-04-21T17:49:37.429Z,15.89
2023-04-21T17:52:05.960Z,15.75
2023-04-21T17:54:33.759Z,15.61
2023-04-21T17:57:02.124Z,15.48
2023-04-21T17:59:30.482Z,15.34
2023-04-21T18:01:59.116Z,15.21
2023-04-21T18:04:29.873Z,15.07
2023-04-21T18:06:59.009Z,14.92
2023-04-21T18:09:27.129Z,14.77
2023-04-21T18:11:54.879Z,14.62
2023-04-21T18:14:23.125Z,14.47
2023-04-21T18:16:50.999Z,14.31
2023-04-21T18:19:18.951Z,14.16
2023-04-21T18:21:46.724Z,14.02
2023-04-21T18:24:15.068Z,13.88
2023-04-21T18:26:43.610Z,13.75
2023-04-21T18:29:11.464Z,13.62
2023-04-21T18:31:39.512Z,13.48
2023-04-21T18:34:08.889Z,13.35
2023-04-21T18:36:38.506Z,13.23
2023-04-21T18:39:06.610Z,13.10
2023-04-21T18:41:34.532Z,12.99
2023-04-21T18:44:03.013Z,12.88
2023-04-21T18:46:30.925Z,12.77
2023-04-21T18:48:58.946Z,12.66
2023-04-21T18:51:27.905Z,12.56
2023-04-21T18:53:55.767Z,12.45
2023-04-21T18:56:23.506Z,12.33
2023-04-21T18:58:51.245Z,12.22
2023-04-21T19:01:19.253Z,12.12
2023-04-21T19:03:47.674Z,12.02
2023-04-21T19:06:16.236Z,11.93
2023-04-21T19:08:44.069Z,11.85
2023-04-21T19:11:14.363Z,11.76
2023-04-21T19:13:42.796Z,11.68
2023-04-21T19:16:12.298Z,11.60
2023-04-21T19:18:41.523Z,11.52
2023-04-21T19:21:13.915Z,11.44
2023-04-21T19:23:41.999Z,11.35
2023-04-21T19:26:12.115Z,11.27
2023-04-21T19:28:41.787Z,11.19
2023-04-21T19:31:10.252Z,11.12
2023-04-21T19:33:38.673Z,11.06
2023-04-21T19:36:07.222Z,10.99
2023-04-21T19:38:36.359Z,10.94
2023-04-21T19:41:04.225Z,10.88
2023-04-21T19:43:32.412Z,10.83
2023-04-21T19:46:01.256Z,10.77
2023-04-21T19:48:29.056Z,10.71
2023-04-21T19:50:56.906Z,10.65
2023-04-21T19:53:24.780Z,10.59
2023-04-21T19:55:52.973Z,10.53
2023-04-21T19:58:32.428Z,10.48
2023-04-21T20:01:07.314Z,10.40
2023-04-21T20:03:35.706Z,10.33
2023-04-21T20:06:05.004Z,10.26
2023-04-21T20:08:32.806Z,10.20
2023-04-21T20:11:01.061Z,10.15
2023-04-21T20:13:28.831Z,10.10
2023-04-21T20:15:57.427Z,10.05
2023-04-21T20:18:25.148Z,10.00
2023-04-21T20:20:53.011Z,9.95
2023-04-21T20:23:20.860Z,9.89
2023-04-21T20:25:48.650Z,9.83
2023-04-21T20:28:16.829Z,9.78
2023-04-21T20:30:44.550Z,9.73
2023-04-21T20:33:12.369Z,9.68
2023-04-21T20:35:44.167Z,9.63
2023-04-21T20:38:11.987Z,9.59
2023-04-21T20:40:39.934Z,9.53
2023-04-21T20:43:07.805Z,9.48
2023-04-21T20:45:35.953Z,9.43
2023-04-21T20:48:04.745Z,9.38
2023-04-21T20:50:32.625Z,9.32
2023-04-21T20:53:00.393Z,9.27
2023-04-21T20:55:28.254Z,9.22
2023-04-21T20:57:56.092Z,9.16
2023-04-21T21:00:23.960Z,9.12
2023-04-21T21:02:51.864Z,9.08
2023-04-21T21:05:19.817Z,9.04
2023-04-21T21:07:48.407Z,9.01
2023-04-21T21:10:18.316Z,8.98
2023-04-21T21:12:46.411Z,8.95
2023-04-21T21:15:14.255Z,8.94
2023-04-21T21:17:42.151Z,8.94
2023-04-21T21:20:10.797Z,8.92
2023-04-21T21:22:38.569Z,8.92
2023-04-21T21:25:06.668Z,8.90
2023-04-21T21:27:34.715Z,8.90
2023-04-21T21:30:02.648Z,8.88
2023-04-21T21:32:30.926Z,8.87
2023-04-21T21:34:58.829Z,8.85
2023-04-21T21:37:26.703Z,8.83
2023-04-21T21:39:55.551Z,8.79
2023-04-21T21:42:23.269Z,8.77
2023-04-21T21:44:51.403Z,8.75
2023-04-21T21:47:19.164Z,8.72
2023-04-21T21:49:46.820Z,8.66
2023-04-21T21:52:15.122Z,8.61
2023-04-21T21:54:43.074Z,8.55
2023-04-21T21:57:11.047Z,8.50
2023-04-21T21:59:39.264Z,8.46
2023-04-21T22:02:07.514Z,8.40
2023-04-21T22:04:35.990Z,8.36
2023-04-21T22:07:03.828Z,8.33
2023-04-21T22:09:31.620Z,8.29
2023-04-21T22:11:59.469Z,8.26
2023-04-21T22:14:28.121Z,8.23
2023-04-21T22:16:57.348Z,8.19
2023-04-21T22:19:25.622Z,8.15
2023-04-21T22:21:53.366Z,8.10
2023-04-21T22:24:21.113Z,8.04
2023-04-21T22:26:48.815Z,7.98
2023-04-21T22:29:16.667Z,7.93
2023-04-21T22:31:44.763Z,7.86
2023-04-21T22:34:15.212Z,7.80
2023-04-21T22:36:43.568Z,7.75
2023-04-21T22:39:11.728Z,7.69
2023-04-21T22:41:39.495Z,7.64
2023-04-21T22:44:07.252Z,7.59
2023-04-21T22:46:35.551Z,7.55
2023-04-21T22:49:03.972Z,7.51
2023-04-21T22:51:32.684Z,7.47
2023-04-21T22:54:00.746Z,7.42
2023-04-21T22:56:30.069Z,7.36
2023-04-21T22:58:57.875Z,7.31
2023-04-21T23:01:25.723Z,7.26
2023-04-21T23:03:53.817Z,7.20
2023-04-21T23:06:21.839Z,7.15
2023-04-21T23:08:49.811Z,7.12
2023-04-21T23:11:17.533Z,7.09
2023-04-21T23:13:45.436Z,7.00
2023-04-21T23:16:13.285Z,6.95
2023-04-21T23:18:41.569Z,6.90
2023-04-21T23:21:09.342Z,6.86
2023-04-21T23:23:37.429Z,6.81
2023-04-21T23:26:05.693Z,6.77
2023-04-21T23:28:33.657Z,6.73
2023-04-21T23:31:01.511Z,6.71
2023-04-21T23:33:29.224Z,6.71
2023-04-21T23:35:57.347Z,6.69
2023-04-21T23:38:25.064Z,6.67
2023-04-21T23:40:52.767Z,6.65
2023-04-21T23:43:20.533Z,6.61
2023-04-21T23:45:48.334Z,6.57
2023-04-21T23:48:16.071Z,6.52
2023-04-21T23:50:43.915Z,6.48
2023-04-21T23:53:11.590Z,6.43
2023-04-21T23:55:39.335Z,6.39
2023-04-21T23:58:07.723Z,6.35
